sensor_id;sensor_type;location;lat;lon;timestamp;P1;durP1;ratioP1;P2;durP2;ratioP2
16173;SDS011;14031;50.158;8.626;2024-03-17T00:01:00;2.47;;;2.23;;
16173;SDS011;14031;50.158;8.626;2024-03-17T00:03:27;2.10;;;2.00;;
16173;SDS011;14031;50.158;8.626;2024-03-17T00:05:56;4.20;;;2.63;;
16173;SDS011;14031;50.158;8.626;2024-03-17T00:08:23;2.80;;;2.60;;
16173;SDS011;14031;50.158;8.626;2024-03-17T00:10:50;2.83;;;2.47;;
16173;SDS011;14031;50.158;8.626;2024-03-17T00:13:17;2.37;;;2.27;;
16173;SDS011;14031;50.158;8.626;2024-03-17T00:15:43;2.43;;;2.33;;
16173;SDS011;14031;50.158;8.626;2024-03-17T00:18:10;2.63;;;2.43;;
16173;SDS011;14031;50.158;8.626;2024-03-17T00:20:36;5.20;;;2.70;;
16173;SDS011;14031;50.158;8.626;2024-03-17T00:23:04;3.00;;;2.70;;
16173;SDS011;14031;50.158;8.626;2024-03-17T00:25:31;3.00;;;2.80;;
16173;SDS011;14031;50.158;8.626;2024-03-17T00:27:58;3.73;;;2.80;;
16173;SDS011;14031;50.158;8.626;2024-03-17T00:30:24;3.50;;;3.20;;
16173;SDS011;14031;50.158;8.626;2024-03-17T00:32:51;3.07;;;2.87;;
16173;SDS011;14031;50.158;8.626;2024-03-17T00:35:17;3.47;;;3.27;;
16173;SDS011;14031;50.158;8.626;2024-03-17T00:37:46;3.30;;;3.00;;
16173;SDS011;14031;50.158;8.626;2024-03-17T00:40:14;3.50;;;3.27;;
16173;SDS011;14031;50.158;8.626;2024-03-17T00:42:41;3.17;;;3.03;;
16173;SDS011;14031;50.158;8.626;2024-03-17T00:45:07;3.53;;;3.23;;
16173;SDS011;14031;50.158;8.626;2024-03-17T00:47:35;3.87;;;3.27;;
16173;SDS011;14031;50.158;8.626;2024-03-17T00:50:01;3.07;;;2.77;;
16173;SDS011;14031;50.158;8.626;2024-03-17T00:52:29;4.67;;;3.23;;
16173;SDS011;14031;50.158;8.626;2024-03-17T00:54:55;7.00;;;5.40;;
16173;SDS011;14031;50.158;8.626;2024-03-17T00:57:23;8.03;;;5.87;;
16173;SDS011;14031;50.158;8.626;2024-03-17T00:59:49;4.73;;;4.33;;
16173;SDS011;14031;50.158;8.626;2024-03-17T01:02:17;3.43;;;3.10;;
16173;SDS011;14031;50.158;8.626;2024-03-17T01:04:43;4.07;;;3.77;;
16173;SDS011;14031;50.158;8.626;2024-03-17T01:07:10;3.73;;;3.43;;
16173;SDS011;14031;50.158;8.626;2024-03-17T01:09:37;3.97;;;3.43;;
16173;SDS011;14031;50.158;8.626;2024-03-17T01:12:04;3.40;;;3.20;;
16173;SDS011;14031;50.158;8.626;2024-03-17T01:14:32;3.83;;;3.53;;
16173;SDS011;14031;50.158;8.626;2024-03-17T01:16:59;5.60;;;3.63;;
16173;SDS011;14031;50.158;8.626;2024-03-17T01:19:25;3.80;;;3.47;;
16173;SDS011;14031;50.158;8.626;2024-03-17T01:21:52;3.10;;;2.90;;
16173;SDS011;14031;50.158;8.626;2024-03-17T01:24:18;3.37;;;3.17;;
16173;SDS011;14031;50.158;8.626;2024-03-17T01:26:45;3.57;;;3.37;;
16173;SDS011;14031;50.158;8.626;2024-03-17T01:29:12;3.83;;;3.53;;
16173;SDS011;14031;50.158;8.626;2024-03-17T01:31:39;3.30;;;3.10;;
16173;SDS011;14031;50.158;8.626;2024-03-17T01:34:06;3.80;;;3.40;;
16173;SDS011;14031;50.158;8.626;2024-03-17T01:36:32;3.70;;;3.40;;
16173;SDS011;14031;50.158;8.626;2024-03-17T01:38:59;3.50;;;3.30;;
16173;SDS011;14031;50.158;8.626;2024-03-17T01:41:25;4.00;;;3.47;;
16173;SDS011;14031;50.158;8.626;2024-03-17T01:43:51;3.07;;;2.77;;
16173;SDS011;14031;50.158;8.626;2024-03-17T01:46:17;3.63;;;3.30;;
16173;SDS011;14031;50.158;8.626;2024-03-17T01:48:45;4.10;;;3.90;;
16173;SDS011;14031;50.158;8.626;2024-03-17T01:51:11;3.40;;;3.20;;
16173;SDS011;14031;50.158;8.626;2024-03-17T01:53:41;3.70;;;3.40;;
16173;SDS011;14031;50.158;8.626;2024-03-17T01:56:07;4.03;;;3.83;;
16173;SDS011;14031;50.158;8.626;2024-03-17T01:58:37;3.50;;;3.30;;
16173;SDS011;14031;50.158;8.626;2024-03-17T02:01:03;4.37;;;3.40;;
16173;SDS011;14031;50.158;8.626;2024-03-17T02:03:30;3.83;;;3.53;;
16173;SDS011;14031;50.158;8.626;2024-03-17T02:05:57;3.80;;;3.60;;
16173;SDS011;14031;50.158;8.626;2024-03-17T02:08:24;3.93;;;3.53;;
16173;SDS011;14031;50.158;8.626;2024-03-17T02:10:54;6.50;;;3.30;;
16173;SDS011;14031;50.158;8.626;2024-03-17T02:13:21;4.80;;;3.27;;
16173;SDS011;14031;50.158;8.626;2024-03-17T02:15:47;6.23;;;3.57;;
16173;SDS011;14031;50.158;8.626;2024-03-17T02:18:14;4.13;;;3.20;;
16173;SDS011;14031;50.158;8.626;2024-03-17T02:20:39;3.47;;;3.27;;
16173;SDS011;14031;50.158;8.626;2024-03-17T02:23:25;2.90;;;2.73;;
16173;SDS011;14031;50.158;8.626;2024-03-17T02:25:51;3.47;;;3.27;;
16173;SDS011;14031;50.158;8.626;2024-03-17T02:28:18;3.23;;;3.03;;
16173;SDS011;14031;50.158;8.626;2024-03-17T02:30:44;4.00;;;3.67;;
16173;SDS011;14031;50.158;8.626;2024-03-17T02:33:10;3.53;;;3.33;;
16173;SDS011;14031;50.158;8.626;2024-03-17T02:35:36;4.23;;;3.30;;
16173;SDS011;14031;50.158;8.626;2024-03-17T02:38:03;4.03;;;3.83;;
16173;SDS011;14031;50.158;8.626;2024-03-17T02:40:30;3.03;;;2.93;;
16173;SDS011;14031;50.158;8.626;2024-03-17T02:42:57;3.70;;;3.50;;
16173;SDS011;14031;50.158;8.626;2024-03-17T02:45:23;3.50;;;3.30;;
16173;SDS011;14031;50.158;8.626;2024-03-17T02:47:50;3.77;;;3.47;;
16173;SDS011;14031;50.158;8.626;2024-03-17T02:50:17;3.47;;;3.27;;
16173;SDS011;14031;50.158;8.626;2024-03-17T02:52:44;3.50;;;3.20;;
16173;SDS011;14031;50.158;8.626;2024-03-17T02:55:10;3.30;;;3.10;;
16173;SDS011;14031;50.158;8.626;2024-03-17T02:57:38;4.97;;;3.60;;
16173;SDS011;14031;50.158;8.626;2024-03-17T03:00:06;4.17;;;3.87;;
16173;SDS011;14031;50.158;8.626;2024-03-17T03:02:38;3.57;;;3.23;;
16173;SDS011;14031;50.158;8.626;2024-03-17T03:05:05;4.17;;;3.87;;
16173;SDS011;14031;50.158;8.626;2024-03-17T03:07:32;4.00;;;3.57;;
16173;SDS011;14031;50.158;8.626;2024-03-17T03:09:59;3.50;;;3.23;;
16173;SDS011;14031;50.158;8.626;2024-03-17T03:12:26;3.30;;;3.00;;
16173;SDS011;14031;50.158;8.626;2024-03-17T03:14:54;3.70;;;3.40;;
16173;SDS011;14031;50.158;8.626;2024-03-17T03:17:21;3.53;;;3.30;;
16173;SDS011;14031;50.158;8.626;2024-03-17T03:19:49;3.63;;;3.43;;
16173;SDS011;14031;50.158;8.626;2024-03-17T03:22:15;3.90;;;3.43;;
16173;SDS011;14031;50.158;8.626;2024-03-17T03:24:42;3.40;;;3.20;;
16173;SDS011;14031;50.158;8.626;2024-03-17T03:27:09;3.70;;;3.50;;
16173;SDS011;14031;50.158;8.626;2024-03-17T03:29:36;3.40;;;3.10;;
16173;SDS011;14031;50.158;8.626;2024-03-17T03:32:04;4.67;;;3.57;;
16173;SDS011;14031;50.158;8.626;2024-03-17T03:34:32;3.50;;;3.30;;
16173;SDS011;14031;50.158;8.626;2024-03-17T03:36:59;4.20;;;2.97;;
16173;SDS011;14031;50.158;8.626;2024-03-17T03:39:26;3.40;;;3.10;;
16173;SDS011;14031;50.158;8.626;2024-03-17T03:41:56;3.43;;;3.23;;
16173;SDS011;14031;50.158;8.626;2024-03-17T03:44:23;4.13;;;3.73;;
16173;SDS011;14031;50.158;8.626;2024-03-17T03:46:50;4.73;;;3.27;;
16173;SDS011;14031;50.158;8.626;2024-03-17T03:49:19;3.93;;;3.63;;
16173;SDS011;14031;50.158;8.626;2024-03-17T03:51:46;3.60;;;3.40;;
16173;SDS011;14031;50.158;8.626;2024-03-17T03:54:13;4.77;;;3.70;;
16173;SDS011;14031;50.158;8.626;2024-03-17T03:56:39;5.00;;;3.40;;
16173;SDS011;14031;50.158;8.626;2024-03-17T03:59:06;3.70;;;3.50;;
16173;SDS011;14031;50.158;8.626;2024-03-17T04:01:33;3.67;;;3.10;;
16173;SDS011;14031;50.158;8.626;2024-03-17T04:04:00;4.77;;;3.30;;
16173;SDS011;14031;50.158;8.626;2024-03-17T04:06:29;3.83;;;3.43;;
16173;SDS011;14031;50.158;8.626;2024-03-17T04:08:56;3.43;;;3.23;;
16173;SDS011;14031;50.158;8.626;2024-03-17T04:11:23;3.73;;;3.40;;
16173;SDS011;14031;50.158;8.626;2024-03-17T04:13:50;8.23;;;3.23;;
16173;SDS011;14031;50.158;8.626;2024-03-17T04:16:17;3.47;;;3.27;;
16173;SDS011;14031;50.158;8.626;2024-03-17T04:18:44;3.90;;;3.60;;
16173;SDS011;14031;50.158;8.626;2024-03-17T04:21:11;5.07;;;3.50;;
16173;SDS011;14031;50.158;8.626;2024-03-17T04:23:39;3.40;;;3.20;;
16173;SDS011;14031;50.158;8.626;2024-03-17T04:26:06;3.43;;;3.03;;
16173;SDS011;14031;50.158;8.626;2024-03-17T04:28:34;8.57;;;3.30;;
16173;SDS011;14031;50.158;8.626;2024-03-17T04:31:04;3.00;;;2.80;;
16173;SDS011;14031;50.158;8.626;2024-03-17T04:33:31;3.03;;;2.83;;
16173;SDS011;14031;50.158;8.626;2024-03-17T04:35:58;3.20;;;3.00;;
16173;SDS011;14031;50.158;8.626;2024-03-17T04:38:25;3.23;;;2.93;;
16173;SDS011;14031;50.158;8.626;2024-03-17T04:40:54;3.10;;;3.00;;
16173;SDS011;14031;50.158;8.626;2024-03-17T04:43:29;6.47;;;3.13;;
16173;SDS011;14031;50.158;8.626;2024-03-17T04:46:00;3.93;;;2.80;;
16173;SDS011;14031;50.158;8.626;2024-03-17T04:48:29;2.97;;;2.77;;
16173;SDS011;14031;50.158;8.626;2024-03-17T04:50:56;5.20;;;4.10;;
16173;SDS011;14031;50.158;8.626;2024-03-17T04:53:23;3.33;;;3.13;;
16173;SDS011;14031;50.158;8.626;2024-03-17T04:55:58;3.10;;;2.80;;
16173;SDS011;14031;50.158;8.626;2024-03-17T04:58:29;3.90;;;2.70;;
16173;SDS011;14031;50.158;8.626;2024-03-17T05:00:56;2.90;;;2.70;;
16173;SDS011;14031;50.158;8.626;2024-03-17T05:03:23;3.20;;;3.00;;
16173;SDS011;14031;50.158;8.626;2024-03-17T05:05:57;3.00;;;2.90;;
16173;SDS011;14031;50.158;8.626;2024-03-17T05:08:26;2.87;;;2.77;;
16173;SDS011;14031;50.158;8.626;2024-03-17T05:10:55;3.30;;;2.73;;
16173;SDS011;14031;50.158;8.626;2024-03-17T05:13:24;3.53;;;2.87;;
16173;SDS011;14031;50.158;8.626;2024-03-17T05:15:51;3.00;;;2.80;;
16173;SDS011;14031;50.158;8.626;2024-03-17T05:18:18;2.90;;;2.70;;
16173;SDS011;14031;50.158;8.626;2024-03-17T05:20:45;3.23;;;3.10;;
16173;SDS011;14031;50.158;8.626;2024-03-17T05:23:13;6.67;;;2.53;;
16173;SDS011;14031;50.158;8.626;2024-03-17T05:25:40;2.77;;;2.67;;
16173;SDS011;14031;50.158;8.626;2024-03-17T05:28:06;3.60;;;3.40;;
16173;SDS011;14031;50.158;8.626;2024-03-17T05:30:36;3.37;;;3.13;;
16173;SDS011;14031;50.158;8.626;2024-03-17T05:33:03;3.40;;;3.10;;
16173;SDS011;14031;50.158;8.626;2024-03-17T05:35:30;4.00;;;3.30;;
16173;SDS011;14031;50.158;8.626;2024-03-17T05:37:57;3.63;;;3.43;;
16173;SDS011;14031;50.158;8.626;2024-03-17T05:40:24;3.20;;;3.00;;
16173;SDS011;14031;50.158;8.626;2024-03-17T05:42:50;3.50;;;3.20;;
16173;SDS011;14031;50.158;8.626;2024-03-17T05:45:17;3.47;;;3.27;;
16173;SDS011;14031;50.158;8.626;2024-03-17T05:47:44;3.87;;;3.27;;
16173;SDS011;14031;50.158;8.626;2024-03-17T05:50:11;3.53;;;3.23;;
16173;SDS011;14031;50.158;8.626;2024-03-17T05:52:38;3.67;;;3.40;;
16173;SDS011;14031;50.158;8.626;2024-03-17T05:55:05;3.10;;;3.00;;
16173;SDS011;14031;50.158;8.626;2024-03-17T05:57:32;3.10;;;2.90;;
16173;SDS011;14031;50.158;8.626;2024-03-17T05:59:59;6.90;;;3.00;;
16173;SDS011;14031;50.158;8.626;2024-03-17T06:02:26;3.13;;;2.80;;
16173;SDS011;14031;50.158;8.626;2024-03-17T06:04:54;3.67;;;3.30;;
16173;SDS011;14031;50.158;8.626;2024-03-17T06:07:22;3.93;;;3.17;;
16173;SDS011;14031;50.158;8.626;2024-03-17T06:09:49;9.87;;;7.63;;
16173;SDS011;14031;50.158;8.626;2024-03-17T06:12:16;51.07;;;24.10;;
16173;SDS011;14031;50.158;8.626;2024-03-17T06:14:42;36.53;;;19.17;;
16173;SDS011;14031;50.158;8.626;2024-03-17T06:17:09;13.50;;;9.47;;
16173;SDS011;14031;50.158;8.626;2024-03-17T06:19:36;4.53;;;4.13;;
16173;SDS011;14031;50.158;8.626;2024-03-17T06:22:04;3.97;;;3.77;;
16173;SDS011;14031;50.158;8.626;2024-03-17T06:24:31;4.50;;;4.20;;
16173;SDS011;14031;50.158;8.626;2024-03-17T06:26:58;3.83;;;3.63;;
16173;SDS011;14031;50.158;8.626;2024-03-17T06:29:25;4.87;;;4.43;;
16173;SDS011;14031;50.158;8.626;2024-03-17T06:31:51;4.60;;;4.17;;
16173;SDS011;14031;50.158;8.626;2024-03-17T06:34:18;4.10;;;3.80;;
16173;SDS011;14031;50.158;8.626;2024-03-17T06:36:47;4.40;;;4.10;;
16173;SDS011;14031;50.158;8.626;2024-03-17T06:39:15;4.50;;;4.13;;
16173;SDS011;14031;50.158;8.626;2024-03-17T06:41:41;4.73;;;4.33;;
16173;SDS011;14031;50.158;8.626;2024-03-17T06:44:08;5.20;;;4.80;;
16173;SDS011;14031;50.158;8.626;2024-03-17T06:46:35;4.20;;;3.97;;
16173;SDS011;14031;50.158;8.626;2024-03-17T06:49:02;5.53;;;5.03;;
16173;SDS011;14031;50.158;8.626;2024-03-17T06:51:28;5.33;;;4.83;;
16173;SDS011;14031;50.158;8.626;2024-03-17T06:53:55;5.40;;;5.00;;
16173;SDS011;14031;50.158;8.626;2024-03-17T06:56:23;5.00;;;4.70;;
16173;SDS011;14031;50.158;8.626;2024-03-17T06:58:50;4.97;;;4.57;;
16173;SDS011;14031;50.158;8.626;2024-03-17T07:01:18;7.60;;;4.87;;
16173;SDS011;14031;50.158;8.626;2024-03-17T07:03:45;4.30;;;4.00;;
16173;SDS011;14031;50.158;8.626;2024-03-17T07:06:12;5.73;;;4.70;;
16173;SDS011;14031;50.158;8.626;2024-03-17T07:08:39;4.77;;;4.30;;
16173;SDS011;14031;50.158;8.626;2024-03-17T07:11:07;5.07;;;4.77;;
16173;SDS011;14031;50.158;8.626;2024-03-17T07:13:35;4.67;;;4.27;;
16173;SDS011;14031;50.158;8.626;2024-03-17T07:16:04;4.70;;;4.30;;
16173;SDS011;14031;50.158;8.626;2024-03-17T07:18:32;4.50;;;4.20;;
16173;SDS011;14031;50.158;8.626;2024-03-17T07:20:58;4.23;;;3.93;;
16173;SDS011;14031;50.158;8.626;2024-03-17T07:23:25;7.87;;;4.63;;
16173;SDS011;14031;50.158;8.626;2024-03-17T07:25:53;5.87;;;3.90;;
16173;SDS011;14031;50.158;8.626;2024-03-17T07:28:19;4.87;;;4.47;;
16173;SDS011;14031;50.158;8.626;2024-03-17T07:30:48;4.30;;;3.97;;
16173;SDS011;14031;50.158;8.626;2024-03-17T07:33:15;4.63;;;4.33;;
16173;SDS011;14031;50.158;8.626;2024-03-17T07:35:46;4.23;;;3.93;;
16173;SDS011;14031;50.158;8.626;2024-03-17T07:38:14;4.20;;;3.97;;
16173;SDS011;14031;50.158;8.626;2024-03-17T07:40:40;4.63;;;4.33;;
16173;SDS011;14031;50.158;8.626;2024-03-17T07:43:07;4.63;;;4.27;;
16173;SDS011;14031;50.158;8.626;2024-03-17T07:45:34;4.63;;;4.33;;
16173;SDS011;14031;50.158;8.626;2024-03-17T07:48:02;4.10;;;3.80;;
16173;SDS011;14031;50.158;8.626;2024-03-17T07:50:29;4.43;;;4.03;;
16173;SDS011;14031;50.158;8.626;2024-03-17T07:52:58;4.40;;;3.97;;
16173;SDS011;14031;50.158;8.626;2024-03-17T07:55:24;4.30;;;3.90;;
16173;SDS011;14031;50.158;8.626;2024-03-17T07:57:51;3.73;;;3.43;;
16173;SDS011;14031;50.158;8.626;2024-03-17T08:00:18;3.80;;;3.50;;
16173;SDS011;14031;50.158;8.626;2024-03-17T08:02:46;5.43;;;4.47;;
16173;SDS011;14031;50.158;8.626;2024-03-17T08:05:14;4.33;;;3.93;;
16173;SDS011;14031;50.158;8.626;2024-03-17T08:07:41;4.80;;;4.40;;
16173;SDS011;14031;50.158;8.626;2024-03-17T08:10:08;4.70;;;4.40;;
16173;SDS011;14031;50.158;8.626;2024-03-17T08:12:35;6.20;;;4.30;;
16173;SDS011;14031;50.158;8.626;2024-03-17T08:15:02;5.37;;;4.23;;
16173;SDS011;14031;50.158;8.626;2024-03-17T08:17:29;4.70;;;4.20;;
16173;SDS011;14031;50.158;8.626;2024-03-17T08:19:56;4.23;;;3.93;;
16173;SDS011;14031;50.158;8.626;2024-03-17T08:22:24;4.80;;;4.40;;
16173;SDS011;14031;50.158;8.626;2024-03-17T08:24:51;4.27;;;3.87;;
16173;SDS011;14031;50.158;8.626;2024-03-17T08:27:18;7.13;;;4.50;;
16173;SDS011;14031;50.158;8.626;2024-03-17T08:29:45;4.40;;;4.07;;
16173;SDS011;14031;50.158;8.626;2024-03-17T08:32:12;3.73;;;3.50;;
16173;SDS011;14031;50.158;8.626;2024-03-17T08:34:40;4.30;;;4.00;;
16173;SDS011;14031;50.158;8.626;2024-03-17T08:37:07;4.67;;;3.90;;
16173;SDS011;14031;50.158;8.626;2024-03-17T08:39:35;4.17;;;3.73;;
16173;SDS011;14031;50.158;8.626;2024-03-17T08:42:02;4.43;;;3.90;;
16173;SDS011;14031;50.158;8.626;2024-03-17T08:44:29;4.20;;;3.90;;
16173;SDS011;14031;50.158;8.626;2024-03-17T08:46:55;3.93;;;3.63;;
16173;SDS011;14031;50.158;8.626;2024-03-17T08:49:23;3.63;;;3.33;;
16173;SDS011;14031;50.158;8.626;2024-03-17T08:51:51;3.97;;;3.70;;
16173;SDS011;14031;50.158;8.626;2024-03-17T08:54:18;4.00;;;3.80;;
16173;SDS011;14031;50.158;8.626;2024-03-17T08:56:46;3.90;;;3.70;;
16173;SDS011;14031;50.158;8.626;2024-03-17T08:59:13;7.50;;;4.07;;
16173;SDS011;14031;50.158;8.626;2024-03-17T09:01:40;4.07;;;3.77;;
16173;SDS011;14031;50.158;8.626;2024-03-17T09:04:06;4.97;;;4.03;;
16173;SDS011;14031;50.158;8.626;2024-03-17T09:06:36;4.93;;;3.60;;
16173;SDS011;14031;50.158;8.626;2024-03-17T09:09:03;5.20;;;3.53;;
16173;SDS011;14031;50.158;8.626;2024-03-17T09:11:31;3.50;;;3.30;;
16173;SDS011;14031;50.158;8.626;2024-03-17T09:13:59;3.27;;;3.10;;
16173;SDS011;14031;50.158;8.626;2024-03-17T09:16:26;2.97;;;2.77;;
16173;SDS011;14031;50.158;8.626;2024-03-17T09:18:55;3.57;;;3.37;;
16173;SDS011;14031;50.158;8.626;2024-03-17T09:21:22;3.10;;;2.90;;
16173;SDS011;14031;50.158;8.626;2024-03-17T09:23:49;2.90;;;2.80;;
16173;SDS011;14031;50.158;8.626;2024-03-17T09:26:16;3.93;;;2.77;;
16173;SDS011;14031;50.158;8.626;2024-03-17T09:28:43;2.87;;;2.67;;
16173;SDS011;14031;50.158;8.626;2024-03-17T09:31:11;2.60;;;2.47;;
16173;SDS011;14031;50.158;8.626;2024-03-17T09:33:39;3.30;;;3.00;;
16173;SDS011;14031;50.158;8.626;2024-03-17T09:36:06;3.70;;;2.67;;
16173;SDS011;14031;50.158;8.626;2024-03-17T09:38:36;3.20;;;3.00;;
16173;SDS011;14031;50.158;8.626;2024-03-17T09:41:03;3.80;;;2.70;;
16173;SDS011;14031;50.158;8.626;2024-03-17T09:43:31;4.17;;;2.80;;
16173;SDS011;14031;50.158;8.626;2024-03-17T09:46:01;4.40;;;3.10;;
16173;SDS011;14031;50.158;8.626;2024-03-17T09:48:30;5.13;;;2.80;;
16173;SDS011;14031;50.158;8.626;2024-03-17T09:50:58;2.63;;;2.43;;
16173;SDS011;14031;50.158;8.626;2024-03-17T09:53:26;2.83;;;2.53;;
16173;SDS011;14031;50.158;8.626;2024-03-17T09:55:56;4.67;;;2.90;;
16173;SDS011;14031;50.158;8.626;2024-03-17T09:58:24;2.37;;;2.27;;
16173;SDS011;14031;50.158;8.626;2024-03-17T10:00:51;3.87;;;2.47;;
16173;SDS011;14031;50.158;8.626;2024-03-17T10:06:10;2.97;;;2.70;;
16173;SDS011;14031;50.158;8.626;2024-03-17T10:08:40;3.07;;;2.60;;
16173;SDS011;14031;50.158;8.626;2024-03-17T10:11:11;2.60;;;2.40;;
16173;SDS011;14031;50.158;8.626;2024-03-17T10:13:38;6.83;;;3.40;;
16173;SDS011;14031;50.158;8.626;2024-03-17T10:16:05;2.50;;;2.40;;
16173;SDS011;14031;50.158;8.626;2024-03-17T10:18:32;2.70;;;2.60;;
16173;SDS011;14031;50.158;8.626;2024-03-17T10:21:01;2.67;;;2.57;;
16173;SDS011;14031;50.158;8.626;2024-03-17T10:23:27;2.97;;;2.70;;
16173;SDS011;14031;50.158;8.626;2024-03-17T10:25:54;2.90;;;2.50;;
16173;SDS011;14031;50.158;8.626;2024-03-17T10:28:21;3.40;;;2.53;;
16173;SDS011;14031;50.158;8.626;2024-03-17T10:30:58;3.57;;;2.50;;
16173;SDS011;14031;50.158;8.626;2024-03-17T10:33:26;2.90;;;2.70;;
16173;SDS011;14031;50.158;8.626;2024-03-17T10:36:01;3.20;;;3.00;;
16173;SDS011;14031;50.158;8.626;2024-03-17T10:38:30;2.80;;;2.60;;
16173;SDS011;14031;50.158;8.626;2024-03-17T10:40:59;2.90;;;2.80;;
16173;SDS011;14031;50.158;8.626;2024-03-17T10:43:27;2.80;;;2.60;;
16173;SDS011;14031;50.158;8.626;2024-03-17T10:45:54;2.70;;;2.50;;
16173;SDS011;14031;50.158;8.626;2024-03-17T10:48:26;3.07;;;2.80;;
16173;SDS011;14031;50.158;8.626;2024-03-17T10:50:58;3.20;;;2.40;;
16173;SDS011;14031;50.158;8.626;2024-03-17T10:53:27;3.27;;;2.97;;
16173;SDS011;14031;50.158;8.626;2024-03-17T10:56:03;4.00;;;3.00;;
16173;SDS011;14031;50.158;8.626;2024-03-17T10:58:34;4.33;;;4.00;;
16173;SDS011;14031;50.158;8.626;2024-03-17T11:01:02;2.67;;;2.47;;
16173;SDS011;14031;50.158;8.626;2024-03-17T11:03:31;2.53;;;2.33;;
16173;SDS011;14031;50.158;8.626;2024-03-17T11:06:00;5.50;;;2.57;;
16173;SDS011;14031;50.158;8.626;2024-03-17T11:08:30;2.57;;;2.47;;
16173;SDS011;14031;50.158;8.626;2024-03-17T11:10:58;2.50;;;2.33;;
16173;SDS011;14031;50.158;8.626;2024-03-17T11:13:26;3.87;;;2.70;;
16173;SDS011;14031;50.158;8.626;2024-03-17T11:15:53;2.90;;;2.80;;
16173;SDS011;14031;50.158;8.626;2024-03-17T11:18:29;2.97;;;2.77;;
16173;SDS011;14031;50.158;8.626;2024-03-17T11:21:05;2.67;;;2.50;;
16173;SDS011;14031;50.158;8.626;2024-03-17T11:23:36;3.80;;;2.77;;
16173;SDS011;14031;50.158;8.626;2024-03-17T11:26:04;2.63;;;2.53;;
16173;SDS011;14031;50.158;8.626;2024-03-17T11:28:45;2.60;;;2.50;;
16173;SDS011;14031;50.158;8.626;2024-03-17T11:33:58;4.20;;;2.97;;
16173;SDS011;14031;50.158;8.626;2024-03-17T11:36:36;5.40;;;2.90;;
16173;SDS011;14031;50.158;8.626;2024-03-17T11:39:06;4.30;;;2.90;;
16173;SDS011;14031;50.158;8.626;2024-03-17T11:41:42;2.70;;;2.50;;
16173;SDS011;14031;50.158;8.626;2024-03-17T11:44:15;3.57;;;2.67;;
16173;SDS011;14031;50.158;8.626;2024-03-17T11:46:49;2.57;;;2.47;;
16173;SDS011;14031;50.158;8.626;2024-03-17T11:49:18;3.10;;;2.90;;
16173;SDS011;14031;50.158;8.626;2024-03-17T11:51:48;3.40;;;2.80;;
16173;SDS011;14031;50.158;8.626;2024-03-17T11:54:15;3.13;;;2.93;;
16173;SDS011;14031;50.158;8.626;2024-03-17T11:56:44;4.57;;;3.00;;
16173;SDS011;14031;50.158;8.626;2024-03-17T11:59:11;3.37;;;3.10;;
16173;SDS011;14031;50.158;8.626;2024-03-17T12:01:37;3.47;;;3.00;;
16173;SDS011;14031;50.158;8.626;2024-03-17T12:04:06;4.68;;;4.32;;
16173;SDS011;14031;50.158;8.626;2024-03-17T12:06:32;3.23;;;3.07;;
16173;SDS011;14031;50.158;8.626;2024-03-17T12:09:10;3.50;;;3.20;;
16173;SDS011;14031;50.158;8.626;2024-03-17T12:11:39;3.43;;;3.23;;
16173;SDS011;14031;50.158;8.626;2024-03-17T12:14:12;4.50;;;3.15;;
16173;SDS011;14031;50.158;8.626;2024-03-17T12:16:46;3.87;;;3.57;;
16173;SDS011;14031;50.158;8.626;2024-03-17T12:19:14;3.70;;;3.50;;
16173;SDS011;14031;50.158;8.626;2024-03-17T12:21:42;3.07;;;2.97;;
16173;SDS011;14031;50.158;8.626;2024-03-17T12:24:12;3.53;;;3.33;;
16173;SDS011;14031;50.158;8.626;2024-03-17T12:26:41;4.00;;;3.70;;
16173;SDS011;14031;50.158;8.626;2024-03-17T12:29:22;3.65;;;3.35;;
16173;SDS011;14031;50.158;8.626;2024-03-17T12:31:49;3.72;;;3.42;;
16173;SDS011;14031;50.158;8.626;2024-03-17T12:34:17;4.55;;;3.47;;
16173;SDS011;14031;50.158;8.626;2024-03-17T12:36:44;4.85;;;4.10;;
16173;SDS011;14031;50.158;8.626;2024-03-17T12:39:12;3.72;;;3.22;;
16173;SDS011;14031;50.158;8.626;2024-03-17T12:41:45;4.35;;;3.90;;
16173;SDS011;14031;50.158;8.626;2024-03-17T12:44:21;3.90;;;3.60;;
16173;SDS011;14031;50.158;8.626;2024-03-17T12:46:47;5.07;;;3.95;;
16173;SDS011;14031;50.158;8.626;2024-03-17T12:49:14;4.10;;;3.70;;
16173;SDS011;14031;50.158;8.626;2024-03-17T12:51:40;3.90;;;3.70;;
16173;SDS011;14031;50.158;8.626;2024-03-17T12:54:15;3.80;;;3.60;;
16173;SDS011;14031;50.158;8.626;2024-03-17T12:56:42;4.55;;;4.25;;
16173;SDS011;14031;50.158;8.626;2024-03-17T12:59:36;4.05;;;3.75;;
16173;SDS011;14031;50.158;8.626;2024-03-17T13:02:21;3.85;;;3.65;;
16173;SDS011;14031;50.158;8.626;2024-03-17T13:07:43;4.47;;;4.07;;
16173;SDS011;14031;50.158;8.626;2024-03-17T13:10:13;4.40;;;3.70;;
16173;SDS011;14031;50.158;8.626;2024-03-17T13:12:41;4.15;;;3.85;;
16173;SDS011;14031;50.158;8.626;2024-03-17T13:15:11;3.72;;;3.42;;
16173;SDS011;14031;50.158;8.626;2024-03-17T13:17:40;4.43;;;4.13;;
16173;SDS011;14031;50.158;8.626;2024-03-17T13:20:08;4.45;;;3.97;;
16173;SDS011;14031;50.158;8.626;2024-03-17T13:22:38;4.35;;;4.05;;
16173;SDS011;14031;50.158;8.626;2024-03-17T13:25:08;5.30;;;4.07;;
16173;SDS011;14031;50.158;8.626;2024-03-17T13:27:40;4.53;;;4.13;;
16173;SDS011;14031;50.158;8.626;2024-03-17T13:30:07;4.28;;;3.97;;
16173;SDS011;14031;50.158;8.626;2024-03-17T13:32:35;4.30;;;4.00;;
16173;SDS011;14031;50.158;8.626;2024-03-17T13:35:02;4.20;;;3.90;;
16173;SDS011;14031;50.158;8.626;2024-03-17T13:37:29;4.32;;;3.92;;
16173;SDS011;14031;50.158;8.626;2024-03-17T13:39:55;4.50;;;4.00;;
16173;SDS011;14031;50.158;8.626;2024-03-17T13:42:22;6.68;;;3.60;;
16173;SDS011;14031;50.158;8.626;2024-03-17T13:44:50;4.65;;;3.90;;
16173;SDS011;14031;50.158;8.626;2024-03-17T13:47:17;4.97;;;4.47;;
16173;SDS011;14031;50.158;8.626;2024-03-17T13:49:44;4.20;;;3.90;;
16173;SDS011;14031;50.158;8.626;2024-03-17T13:52:11;7.28;;;3.67;;
16173;SDS011;14031;50.158;8.626;2024-03-17T13:54:38;4.03;;;3.72;;
16173;SDS011;14031;50.158;8.626;2024-03-17T13:57:05;4.57;;;4.00;;
16173;SDS011;14031;50.158;8.626;2024-03-17T13:59:32;4.03;;;3.72;;
16173;SDS011;14031;50.158;8.626;2024-03-17T14:02:00;4.13;;;3.83;;
16173;SDS011;14031;50.158;8.626;2024-03-17T14:04:28;4.25;;;3.95;;
16173;SDS011;14031;50.158;8.626;2024-03-17T14:06:55;3.60;;;3.35;;
16173;SDS011;14031;50.158;8.626;2024-03-17T14:09:21;5.68;;;4.00;;
16173;SDS011;14031;50.158;8.626;2024-03-17T14:11:48;4.10;;;3.80;;
16173;SDS011;14031;50.158;8.626;2024-03-17T14:14:15;4.53;;;4.22;;
16173;SDS011;14031;50.158;8.626;2024-03-17T14:16:42;4.18;;;3.97;;
16173;SDS011;14031;50.158;8.626;2024-03-17T14:19:10;4.47;;;4.18;;
16173;SDS011;14031;50.158;8.626;2024-03-17T14:21:37;4.65;;;4.13;;
16173;SDS011;14031;50.158;8.626;2024-03-17T14:24:04;4.25;;;3.97;;
16173;SDS011;14031;50.158;8.626;2024-03-17T14:26:32;6.13;;;4.15;;
16173;SDS011;14031;50.158;8.626;2024-03-17T14:29:00;4.35;;;3.95;;
16173;SDS011;14031;50.158;8.626;2024-03-17T14:31:29;4.18;;;3.88;;
16173;SDS011;14031;50.158;8.626;2024-03-17T14:33:56;3.60;;;3.30;;
16173;SDS011;14031;50.158;8.626;2024-03-17T14:36:25;24.65;;;13.15;;
16173;SDS011;14031;50.158;8.626;2024-03-17T14:38:53;14.23;;;12.73;;
16173;SDS011;14031;50.158;8.626;2024-03-17T14:41:20;7.70;;;7.03;;
16173;SDS011;14031;50.158;8.626;2024-03-17T14:43:47;5.78;;;5.18;;
16173;SDS011;14031;50.158;8.626;2024-03-17T14:46:13;10.38;;;9.45;;
16173;SDS011;14031;50.158;8.626;2024-03-17T14:48:42;4.80;;;4.30;;
16173;SDS011;14031;50.158;8.626;2024-03-17T14:51:09;4.07;;;3.75;;
16173;SDS011;14031;50.158;8.626;2024-03-17T14:53:37;4.93;;;4.45;;
16173;SDS011;14031;50.158;8.626;2024-03-17T14:56:12;4.03;;;3.83;;
16173;SDS011;14031;50.158;8.626;2024-03-17T14:58:41;4.10;;;3.90;;
16173;SDS011;14031;50.158;8.626;2024-03-17T15:01:08;4.22;;;3.92;;